sensor_id;sensor_type;location;lat;lon;timestamp;P1;durP1;ratioP1;P2;durP2;ratioP2
28724;SDS011;43472;48.980;9.646;2022-12-18T00:03:18;47.75;;;20.60;;
28724;SDS011;43472;48.980;9.646;2022-12-18T00:08:21;43.42;;;20.08;;
28724;SDS011;43472;48.980;9.646;2022-12-18T00:13:23;49.92;;;21.08;;
28724;SDS011;43472;48.980;9.646;2022-12-18T00:18:28;46.58;;;19.00;;
28724;SDS011;43472;48.980;9.646;2022-12-18T00:23:32;45.35;;;18.98;;
28724;SDS011;43472;48.980;9.646;2022-12-18T00:28:36;40.42;;;17.67;;
28724;SDS011;43472;48.980;9.646;2022-12-18T00:33:38;43.33;;;19.23;;
28724;SDS011;43472;48.980;9.646;2022-12-18T00:38:42;40.38;;;17.23;;
28724;SDS011;43472;48.980;9.646;2022-12-18T00:43:44;37.63;;;16.90;;
28724;SDS011;43472;48.980;9.646;2022-12-18T00:48:46;43.97;;;18.23;;
28724;SDS011;43472;48.980;9.646;2022-12-18T00:53:48;46.38;;;19.75;;
28724;SDS011;43472;48.980;9.646;2022-12-18T00:58:50;39.50;;;17.73;;
28724;SDS011;43472;48.980;9.646;2022-12-18T01:03:52;45.22;;;17.38;;
28724;SDS011;43472;48.980;9.646;2022-12-18T01:08:54;35.95;;;15.93;;
28724;SDS011;43472;48.980;9.646;2022-12-18T01:13:57;37.17;;;16.88;;
28724;SDS011;43472;48.980;9.646;2022-12-18T01:18:59;45.85;;;19.33;;
28724;SDS011;43472;48.980;9.646;2022-12-18T01:24:01;45.33;;;17.27;;
28724;SDS011;43472;48.980;9.646;2022-12-18T01:29:03;48.15;;;18.63;;
28724;SDS011;43472;48.980;9.646;2022-12-18T01:34:06;41.55;;;17.80;;
28724;SDS011;43472;48.980;9.646;2022-12-18T01:39:10;45.13;;;18.83;;
28724;SDS011;43472;48.980;9.646;2022-12-18T01:49:54;43.17;;;18.42;;
28724;SDS011;43472;48.980;9.646;2022-12-18T01:54:58;49.88;;;19.10;;
28724;SDS011;43472;48.980;9.646;2022-12-18T02:00:04;45.10;;;20.95;;
28724;SDS011;43472;48.980;9.646;2022-12-18T02:05:09;36.97;;;16.80;;
28724;SDS011;43472;48.980;9.646;2022-12-18T02:10:20;42.13;;;16.73;;
28724;SDS011;43472;48.980;9.646;2022-12-18T02:15:32;44.15;;;16.35;;
28724;SDS011;43472;48.980;9.646;2022-12-18T02:20:55;48.42;;;17.77;;
28724;SDS011;43472;48.980;9.646;2022-12-18T02:31:23;37.95;;;16.35;;
28724;SDS011;43472;48.980;9.646;2022-12-18T02:36:28;47.05;;;18.20;;
28724;SDS011;43472;48.980;9.646;2022-12-18T02:41:33;44.08;;;17.23;;
28724;SDS011;43472;48.980;9.646;2022-12-18T02:46:39;37.60;;;16.55;;
28724;SDS011;43472;48.980;9.646;2022-12-18T02:51:52;41.67;;;17.40;;
28724;SDS011;43472;48.980;9.646;2022-12-18T02:56:57;36.38;;;16.88;;
28724;SDS011;43472;48.980;9.646;2022-12-18T03:02:09;34.88;;;16.52;;
28724;SDS011;43472;48.980;9.646;2022-12-18T03:08:32;39.72;;;15.70;;
28724;SDS011;43472;48.980;9.646;2022-12-18T03:13:14;36.70;;;16.30;;
28724;SDS011;43472;48.980;9.646;2022-12-18T03:18:23;36.50;;;15.77;;
28724;SDS011;43472;48.980;9.646;2022-12-18T03:23:32;41.65;;;17.58;;
28724;SDS011;43472;48.980;9.646;2022-12-18T03:28:42;38.50;;;15.77;;
28724;SDS011;43472;48.980;9.646;2022-12-18T03:33:53;38.65;;;16.92;;
28724;SDS011;43472;48.980;9.646;2022-12-18T03:39:07;42.47;;;16.65;;
28724;SDS011;43472;48.980;9.646;2022-12-18T03:44:11;36.15;;;16.73;;
28724;SDS011;43472;48.980;9.646;2022-12-18T03:54:43;43.00;;;17.52;;
28724;SDS011;43472;48.980;9.646;2022-12-18T03:59:48;37.40;;;16.35;;
28724;SDS011;43472;48.980;9.646;2022-12-18T04:04:56;38.22;;;14.35;;
28724;SDS011;43472;48.980;9.646;2022-12-18T04:10:00;35.95;;;15.77;;
28724;SDS011;43472;48.980;9.646;2022-12-18T04:15:04;39.63;;;16.13;;
28724;SDS011;43472;48.980;9.646;2022-12-18T04:20:06;39.83;;;17.13;;
28724;SDS011;43472;48.980;9.646;2022-12-18T04:25:08;37.97;;;17.85;;
28724;SDS011;43472;48.980;9.646;2022-12-18T04:30:11;40.22;;;14.98;;
28724;SDS011;43472;48.980;9.646;2022-12-18T04:35:13;38.47;;;16.23;;
28724;SDS011;43472;48.980;9.646;2022-12-18T04:40:16;34.88;;;15.48;;
28724;SDS011;43472;48.980;9.646;2022-12-18T04:45:19;31.95;;;14.50;;
28724;SDS011;43472;48.980;9.646;2022-12-18T04:50:21;35.00;;;15.98;;
28724;SDS011;43472;48.980;9.646;2022-12-18T04:55:23;38.55;;;16.38;;
28724;SDS011;43472;48.980;9.646;2022-12-18T05:00:25;39.72;;;16.42;;
28724;SDS011;43472;48.980;9.646;2022-12-18T05:05:27;39.58;;;16.20;;
28724;SDS011;43472;48.980;9.646;2022-12-18T05:10:29;37.03;;;17.08;;
28724;SDS011;43472;48.980;9.646;2022-12-18T05:15:38;29.27;;;13.02;;
28724;SDS011;43472;48.980;9.646;2022-12-18T05:20:40;36.17;;;15.02;;
28724;SDS011;43472;48.980;9.646;2022-12-18T05:25:46;35.47;;;14.10;;
28724;SDS011;43472;48.980;9.646;2022-12-18T05:30:52;42.05;;;14.88;;
28724;SDS011;43472;48.980;9.646;2022-12-18T05:35:57;31.70;;;13.48;;
28724;SDS011;43472;48.980;9.646;2022-12-18T05:41:00;34.70;;;14.23;;
28724;SDS011;43472;48.980;9.646;2022-12-18T05:46:03;33.95;;;13.48;;
28724;SDS011;43472;48.980;9.646;2022-12-18T05:51:10;34.97;;;13.93;;
28724;SDS011;43472;48.980;9.646;2022-12-18T05:56:17;32.67;;;13.23;;
28724;SDS011;43472;48.980;9.646;2022-12-18T06:01:21;33.40;;;13.65;;
28724;SDS011;43472;48.980;9.646;2022-12-18T06:06:26;35.30;;;13.75;;
28724;SDS011;43472;48.980;9.646;2022-12-18T06:11:28;29.75;;;13.23;;
28724;SDS011;43472;48.980;9.646;2022-12-18T06:16:30;29.58;;;12.55;;
28724;SDS011;43472;48.980;9.646;2022-12-18T06:21:33;29.73;;;12.90;;
28724;SDS011;43472;48.980;9.646;2022-12-18T06:26:37;34.80;;;12.82;;
28724;SDS011;43472;48.980;9.646;2022-12-18T06:31:40;33.15;;;12.45;;
28724;SDS011;43472;48.980;9.646;2022-12-18T06:36:41;32.47;;;13.00;;
28724;SDS011;43472;48.980;9.646;2022-12-18T06:41:43;35.30;;;13.35;;
28724;SDS011;43472;48.980;9.646;2022-12-18T06:46:46;26.02;;;11.93;;
28724;SDS011;43472;48.980;9.646;2022-12-18T06:51:48;35.28;;;14.13;;
28724;SDS011;43472;48.980;9.646;2022-12-18T06:56:50;34.95;;;13.45;;
28724;SDS011;43472;48.980;9.646;2022-12-18T07:01:52;31.83;;;13.57;;
28724;SDS011;43472;48.980;9.646;2022-12-18T07:06:54;36.20;;;13.82;;
28724;SDS011;43472;48.980;9.646;2022-12-18T07:11:56;35.53;;;15.07;;
28724;SDS011;43472;48.980;9.646;2022-12-18T07:16:59;27.02;;;12.63;;
28724;SDS011;43472;48.980;9.646;2022-12-18T07:22:02;35.55;;;12.95;;
28724;SDS011;43472;48.980;9.646;2022-12-18T07:27:04;35.22;;;13.02;;
28724;SDS011;43472;48.980;9.646;2022-12-18T07:32:08;33.72;;;13.20;;
28724;SDS011;43472;48.980;9.646;2022-12-18T07:37:10;36.17;;;13.73;;
28724;SDS011;43472;48.980;9.646;2022-12-18T07:42:12;39.08;;;14.75;;
28724;SDS011;43472;48.980;9.646;2022-12-18T07:47:35;33.13;;;13.45;;
28724;SDS011;43472;48.980;9.646;2022-12-18T07:52:37;35.80;;;14.18;;
28724;SDS011;43472;48.980;9.646;2022-12-18T07:57:39;29.88;;;14.07;;
28724;SDS011;43472;48.980;9.646;2022-12-18T08:02:51;35.10;;;15.25;;
28724;SDS011;43472;48.980;9.646;2022-12-18T08:07:54;36.05;;;15.95;;
28724;SDS011;43472;48.980;9.646;2022-12-18T08:12:57;45.00;;;18.05;;
28724;SDS011;43472;48.980;9.646;2022-12-18T08:18:05;60.80;;;28.88;;
28724;SDS011;43472;48.980;9.646;2022-12-18T08:23:14;44.03;;;21.95;;
28724;SDS011;43472;48.980;9.646;2022-12-18T08:28:16;43.60;;;22.42;;
28724;SDS011;43472;48.980;9.646;2022-12-18T08:33:17;54.92;;;24.42;;
28724;SDS011;43472;48.980;9.646;2022-12-18T08:38:20;52.72;;;27.05;;
28724;SDS011;43472;48.980;9.646;2022-12-18T08:43:22;44.47;;;23.10;;
28724;SDS011;43472;48.980;9.646;2022-12-18T08:48:43;54.00;;;22.88;;
28724;SDS011;43472;48.980;9.646;2022-12-18T08:53:45;49.15;;;24.52;;
28724;SDS011;43472;48.980;9.646;2022-12-18T08:58:47;42.35;;;22.58;;
28724;SDS011;43472;48.980;9.646;2022-12-18T09:03:52;44.22;;;23.80;;
28724;SDS011;43472;48.980;9.646;2022-12-18T09:08:54;44.35;;;25.52;;
28724;SDS011;43472;48.980;9.646;2022-12-18T09:13:56;37.42;;;22.80;;
28724;SDS011;43472;48.980;9.646;2022-12-18T09:18:59;39.60;;;22.27;;
28724;SDS011;43472;48.980;9.646;2022-12-18T09:24:02;41.53;;;21.15;;
28724;SDS011;43472;48.980;9.646;2022-12-18T09:29:05;49.88;;;23.20;;
28724;SDS011;43472;48.980;9.646;2022-12-18T09:34:08;42.30;;;19.77;;
28724;SDS011;43472;48.980;9.646;2022-12-18T09:39:10;45.08;;;21.00;;
28724;SDS011;43472;48.980;9.646;2022-12-18T09:49:26;49.38;;;23.30;;
28724;SDS011;43472;48.980;9.646;2022-12-18T09:54:41;45.38;;;19.83;;
28724;SDS011;43472;48.980;9.646;2022-12-18T09:59:46;48.50;;;19.17;;
28724;SDS011;43472;48.980;9.646;2022-12-18T10:05:12;41.20;;;18.23;;
28724;SDS011;43472;48.980;9.646;2022-12-18T10:10:19;41.53;;;18.17;;
28724;SDS011;43472;48.980;9.646;2022-12-18T10:20:56;47.00;;;19.67;;
28724;SDS011;43472;48.980;9.646;2022-12-18T10:26:06;46.97;;;21.58;;
28724;SDS011;43472;48.980;9.646;2022-12-18T10:36:19;41.80;;;18.42;;
28724;SDS011;43472;48.980;9.646;2022-12-18T10:41:25;49.40;;;22.33;;
28724;SDS011;43472;48.980;9.646;2022-12-18T10:46:29;43.05;;;20.30;;
28724;SDS011;43472;48.980;9.646;2022-12-18T10:51:35;48.80;;;20.45;;
28724;SDS011;43472;48.980;9.646;2022-12-18T10:56:38;41.13;;;19.70;;
28724;SDS011;43472;48.980;9.646;2022-12-18T11:06:54;34.65;;;20.02;;
28724;SDS011;43472;48.980;9.646;2022-12-18T11:12:02;37.72;;;22.52;;
28724;SDS011;43472;48.980;9.646;2022-12-18T11:17:16;33.10;;;20.55;;
28724;SDS011;43472;48.980;9.646;2022-12-18T11:22:36;34.88;;;21.75;;
28724;SDS011;43472;48.980;9.646;2022-12-18T11:27:39;34.97;;;21.00;;
28724;SDS011;43472;48.980;9.646;2022-12-18T11:32:45;29.00;;;18.30;;
28724;SDS011;43472;48.980;9.646;2022-12-18T11:37:53;32.95;;;19.88;;
28724;SDS011;43472;48.980;9.646;2022-12-18T11:43:02;33.40;;;19.70;;
28724;SDS011;43472;48.980;9.646;2022-12-18T11:48:17;33.75;;;20.95;;
28724;SDS011;43472;48.980;9.646;2022-12-18T11:53:31;34.97;;;21.63;;
28724;SDS011;43472;48.980;9.646;2022-12-18T12:14:44;32.72;;;19.65;;
28724;SDS011;43472;48.980;9.646;2022-12-18T12:30:35;30.00;;;18.98;;
28724;SDS011;43472;48.980;9.646;2022-12-18T12:36:04;30.92;;;19.08;;
28724;SDS011;43472;48.980;9.646;2022-12-18T12:41:23;29.95;;;17.27;;
28724;SDS011;43472;48.980;9.646;2022-12-18T12:46:46;33.85;;;17.95;;
28724;SDS011;43472;48.980;9.646;2022-12-18T12:57:36;41.58;;;21.58;;
28724;SDS011;43472;48.980;9.646;2022-12-18T13:13:10;33.00;;;16.15;;
28724;SDS011;43472;48.980;9.646;2022-12-18T13:33:49;35.63;;;17.02;;
28724;SDS011;43472;48.980;9.646;2022-12-18T13:44:34;35.17;;;17.25;;
28724;SDS011;43472;48.980;9.646;2022-12-18T13:49:43;35.33;;;16.67;;
28724;SDS011;43472;48.980;9.646;2022-12-18T13:54:49;33.78;;;17.33;;
28724;SDS011;43472;48.980;9.646;2022-12-18T13:59:54;38.50;;;18.05;;
28724;SDS011;43472;48.980;9.646;2022-12-18T14:04:57;36.08;;;17.00;;
28724;SDS011;43472;48.980;9.646;2022-12-18T14:09:59;37.42;;;17.67;;
28724;SDS011;43472;48.980;9.646;2022-12-18T14:20:28;38.95;;;17.85;;
28724;SDS011;43472;48.980;9.646;2022-12-18T14:25:33;38.17;;;17.02;;
28724;SDS011;43472;48.980;9.646;2022-12-18T14:30:36;35.67;;;16.23;;
28724;SDS011;43472;48.980;9.646;2022-12-18T14:35:51;33.97;;;15.93;;
28724;SDS011;43472;48.980;9.646;2022-12-18T14:40:57;32.38;;;14.95;;
28724;SDS011;43472;48.980;9.646;2022-12-18T14:46:49;37.33;;;16.20;;
28724;SDS011;43472;48.980;9.646;2022-12-18T14:51:36;35.78;;;16.88;;
28724;SDS011;43472;48.980;9.646;2022-12-18T14:56:43;35.92;;;16.02;;
28724;SDS011;43472;48.980;9.646;2022-12-18T15:01:48;36.22;;;14.93;;
28724;SDS011;43472;48.980;9.646;2022-12-18T15:07:08;38.35;;;16.30;;
28724;SDS011;43472;48.980;9.646;2022-12-18T15:12:19;32.83;;;15.80;;
28724;SDS011;43472;48.980;9.646;2022-12-18T15:17:36;33.70;;;15.70;;
28724;SDS011;43472;48.980;9.646;2022-12-18T15:22:39;38.28;;;13.90;;
28724;SDS011;43472;48.980;9.646;2022-12-18T15:27:44;37.80;;;14.75;;
28724;SDS011;43472;48.980;9.646;2022-12-18T15:32:48;36.08;;;15.20;;
28724;SDS011;43472;48.980;9.646;2022-12-18T15:37:51;39.70;;;16.17;;
28724;SDS011;43472;48.980;9.646;2022-12-18T15:42:53;37.03;;;15.90;;
28724;SDS011;43472;48.980;9.646;2022-12-18T15:48:17;33.90;;;14.05;;
28724;SDS011;43472;48.980;9.646;2022-12-18T15:53:25;37.47;;;15.25;;
28724;SDS011;43472;48.980;9.646;2022-12-18T15:58:33;39.65;;;15.18;;
28724;SDS011;43472;48.980;9.646;2022-12-18T16:03:35;34.80;;;14.68;;
28724;SDS011;43472;48.980;9.646;2022-12-18T16:08:37;38.95;;;16.00;;
28724;SDS011;43472;48.980;9.646;2022-12-18T16:13:41;38.25;;;15.60;;
28724;SDS011;43472;48.980;9.646;2022-12-18T16:18:44;36.50;;;15.63;;
28724;SDS011;43472;48.980;9.646;2022-12-18T16:23:46;40.63;;;15.27;;
28724;SDS011;43472;48.980;9.646;2022-12-18T16:28:48;35.63;;;14.95;;
28724;SDS011;43472;48.980;9.646;2022-12-18T16:33:49;39.40;;;15.25;;
28724;SDS011;43472;48.980;9.646;2022-12-18T16:39:25;37.15;;;14.43;;
28724;SDS011;43472;48.980;9.646;2022-12-18T16:44:27;32.10;;;14.57;;
28724;SDS011;43472;48.980;9.646;2022-12-18T16:49:29;39.08;;;15.52;;
28724;SDS011;43472;48.980;9.646;2022-12-18T16:54:32;37.42;;;15.35;;
28724;SDS011;43472;48.980;9.646;2022-12-18T16:59:36;40.63;;;15.90;;
28724;SDS011;43472;48.980;9.646;2022-12-18T17:04:38;41.63;;;16.23;;
28724;SDS011;43472;48.980;9.646;2022-12-18T17:09:41;40.47;;;15.45;;
28724;SDS011;43472;48.980;9.646;2022-12-18T17:14:43;36.88;;;15.70;;
28724;SDS011;43472;48.980;9.646;2022-12-18T17:19:47;39.55;;;15.20;;
28724;SDS011;43472;48.980;9.646;2022-12-18T17:24:51;43.47;;;16.63;;
28724;SDS011;43472;48.980;9.646;2022-12-18T17:29:55;39.55;;;16.65;;
28724;SDS011;43472;48.980;9.646;2022-12-18T17:34:57;37.38;;;15.57;;
28724;SDS011;43472;48.980;9.646;2022-12-18T17:40:07;42.97;;;17.08;;
28724;SDS011;43472;48.980;9.646;2022-12-18T17:45:11;39.85;;;16.02;;
28724;SDS011;43472;48.980;9.646;2022-12-18T17:50:13;36.90;;;15.93;;
28724;SDS011;43472;48.980;9.646;2022-12-18T17:55:15;42.53;;;17.33;;
28724;SDS011;43472;48.980;9.646;2022-12-18T18:00:17;35.85;;;15.48;;
28724;SDS011;43472;48.980;9.646;2022-12-18T18:05:20;43.60;;;17.25;;
28724;SDS011;43472;48.980;9.646;2022-12-18T18:10:22;42.13;;;15.48;;
28724;SDS011;43472;48.980;9.646;2022-12-18T18:15:24;40.50;;;16.40;;
28724;SDS011;43472;48.980;9.646;2022-12-18T18:20:26;39.92;;;16.50;;
28724;SDS011;43472;48.980;9.646;2022-12-18T18:25:34;41.17;;;15.55;;
28724;SDS011;43472;48.980;9.646;2022-12-18T18:30:37;37.25;;;14.98;;
28724;SDS011;43472;48.980;9.646;2022-12-18T18:35:42;35.78;;;15.05;;
28724;SDS011;43472;48.980;9.646;2022-12-18T18:40:58;38.53;;;16.70;;
28724;SDS011;43472;48.980;9.646;2022-12-18T18:46:04;40.97;;;17.17;;
28724;SDS011;43472;48.980;9.646;2022-12-18T18:51:08;45.20;;;19.77;;
28724;SDS011;43472;48.980;9.646;2022-12-18T18:56:22;39.83;;;15.95;;
28724;SDS011;43472;48.980;9.646;2022-12-18T19:01:45;41.78;;;15.82;;
28724;SDS011;43472;48.980;9.646;2022-12-18T19:06:47;40.78;;;16.95;;
28724;SDS011;43472;48.980;9.646;2022-12-18T19:11:49;42.28;;;16.33;;
28724;SDS011;43472;48.980;9.646;2022-12-18T19:17:10;43.83;;;17.08;;
28724;SDS011;43472;48.980;9.646;2022-12-18T19:22:12;38.45;;;16.75;;
28724;SDS011;43472;48.980;9.646;2022-12-18T19:27:14;35.15;;;15.95;;
28724;SDS011;43472;48.980;9.646;2022-12-18T19:32:16;45.67;;;17.35;;
28724;SDS011;43472;48.980;9.646;2022-12-18T19:37:18;41.65;;;16.30;;
28724;SDS011;43472;48.980;9.646;2022-12-18T19:42:20;46.17;;;17.77;;
28724;SDS011;43472;48.980;9.646;2022-12-18T19:47:32;41.80;;;16.98;;
28724;SDS011;43472;48.980;9.646;2022-12-18T19:52:34;42.80;;;19.52;;
28724;SDS011;43472;48.980;9.646;2022-12-18T19:57:36;45.60;;;20.00;;
28724;SDS011;43472;48.980;9.646;2022-12-18T20:02:38;46.38;;;19.70;;
28724;SDS011;43472;48.980;9.646;2022-12-18T20:07:40;50.67;;;20.92;;
28724;SDS011;43472;48.980;9.646;2022-12-18T20:12:44;41.60;;;18.40;;
28724;SDS011;43472;48.980;9.646;2022-12-18T20:17:46;40.63;;;17.95;;
28724;SDS011;43472;48.980;9.646;2022-12-18T20:22:48;42.88;;;19.17;;
28724;SDS011;43472;48.980;9.646;2022-12-18T20:27:50;41.55;;;17.20;;
28724;SDS011;43472;48.980;9.646;2022-12-18T20:32:52;40.47;;;17.55;;
28724;SDS011;43472;48.980;9.646;2022-12-18T20:37:54;36.50;;;14.68;;
28724;SDS011;43472;48.980;9.646;2022-12-18T20:42:57;34.47;;;15.10;;
28724;SDS011;43472;48.980;9.646;2022-12-18T20:47:59;33.40;;;14.60;;
28724;SDS011;43472;48.980;9.646;2022-12-18T20:53:01;40.85;;;17.17;;
28724;SDS011;43472;48.980;9.646;2022-12-18T20:58:03;33.80;;;15.23;;
28724;SDS011;43472;48.980;9.646;2022-12-18T21:03:05;40.50;;;16.02;;
28724;SDS011;43472;48.980;9.646;2022-12-18T21:08:08;36.53;;;15.70;;
28724;SDS011;43472;48.980;9.646;2022-12-18T21:13:12;36.92;;;14.73;;
28724;SDS011;43472;48.980;9.646;2022-12-18T21:18:16;59.13;;;25.05;;
28724;SDS011;43472;48.980;9.646;2022-12-18T21:23:19;29.48;;;12.80;;
28724;SDS011;43472;48.980;9.646;2022-12-18T21:28:21;38.13;;;15.55;;
28724;SDS011;43472;48.980;9.646;2022-12-18T21:33:23;38.70;;;15.40;;
28724;SDS011;43472;48.980;9.646;2022-12-18T21:38:26;36.17;;;14.98;;
28724;SDS011;43472;48.980;9.646;2022-12-18T21:43:28;36.70;;;15.02;;
28724;SDS011;43472;48.980;9.646;2022-12-18T21:48:49;39.13;;;14.90;;
28724;SDS011;43472;48.980;9.646;2022-12-18T21:53:51;32.80;;;14.65;;
28724;SDS011;43472;48.980;9.646;2022-12-18T21:58:52;39.35;;;15.90;;
28724;SDS011;43472;48.980;9.646;2022-12-18T22:03:57;35.38;;;14.63;;
28724;SDS011;43472;48.980;9.646;2022-12-18T22:08:59;37.97;;;15.73;;
28724;SDS011;43472;48.980;9.646;2022-12-18T22:14:02;39.53;;;16.98;;
28724;SDS011;43472;48.980;9.646;2022-12-18T22:19:04;36.70;;;15.50;;
28724;SDS011;43472;48.980;9.646;2022-12-18T22:24:07;38.78;;;16.27;;
28724;SDS011;43472;48.980;9.646;2022-12-18T22:29:20;38.92;;;16.45;;
28724;SDS011;43472;48.980;9.646;2022-12-18T22:34:41;34.60;;;15.75;;
28724;SDS011;43472;48.980;9.646;2022-12-18T22:39:43;35.88;;;16.60;;
28724;SDS011;43472;48.980;9.646;2022-12-18T22:44:45;35.55;;;16.48;;
28724;SDS011;43472;48.980;9.646;2022-12-18T22:49:48;40.05;;;17.75;;
28724;SDS011;43472;48.980;9.646;2022-12-18T22:54:49;41.60;;;18.55;;
28724;SDS011;43472;48.980;9.646;2022-12-18T22:59:53;38.45;;;16.75;;
28724;SDS011;43472;48.980;9.646;2022-12-18T23:04:56;38.83;;;16.80;;
28724;SDS011;43472;48.980;9.646;2022-12-18T23:09:58;36.80;;;16.52;;
28724;SDS011;43472;48.980;9.646;2022-12-18T23:15:01;38.72;;;16.05;;
28724;SDS011;43472;48.980;9.646;2022-12-18T23:20:04;40.38;;;16.40;;
28724;SDS011;43472;48.980;9.646;2022-12-18T23:25:06;41.97;;;16.55;;
28724;SDS011;43472;48.980;9.646;2022-12-18T23:30:08;41.05;;;16.65;;
28724;SDS011;43472;48.980;9.646;2022-12-18T23:35:10;39.35;;;16.58;;
28724;SDS011;43472;48.980;9.646;2022-12-18T23:40:16;39.97;;;15.95;;
28724;SDS011;43472;48.980;9.646;2022-12-18T23:45:18;34.83;;;15.38;;
28724;SDS011;43472;48.980;9.646;2022-12-18T23:50:20;39.22;;;16.35;;
28724;SDS011;43472;48.980;9.646;2022-12-18T23:55:29;37.28;;;16.02;;
